Time;durP1;ratioP1;P1;durP2;ratioP2;P2;SDS_P1;SDS_P2;PMS_P1;PMS_P2;Temp;Humidity;BMP_temperature;BMP_pressure;BME280_temperature;BME280_humidity;BME280_pressure;Samples;Min_cycle;Max_cycle;Signal;HPM_P1;HPM_P2
2021/12/01 00:00:17;;;;;;;4.65;2.28;;;-1.40;99.90;;;-1.93;96.37;96838.94;170359;29;1434;-76
2021/12/01 00:00:27;;;;;;;4.47;2.28;;;-1.30;99.90;;;-2.05;96.02;96823.28;170667;28;1348;-74
2021/12/01 00:00:33;;;;;;;4.20;2.57;;;-1.30;99.90;;;-1.96;96.20;96831.28;171655;28;1052;-76
2021/12/01 00:00:39;;;;;;;3.60;2.30;;;-1.30;99.90;;;-1.92;96.38;96837.16;171610;28;1293;-75
2021/12/01 00:00:47;;;;;;;3.75;2.33;;;-1.40;99.90;;;-1.96;96.30;96828.63;170417;29;1781;-76
2021/12/01 00:00:54;;;;;;;3.40;2.30;;;-1.40;99.90;;;-1.99;96.07;96818.34;171035;28;867;-75
2021/12/01 00:01:00;;;;;;;3.42;2.28;;;-1.40;99.90;;;-1.99;96.49;96818.34;171648;28;1324;-76
2021/12/01 00:01:06;;;;;;;3.17;2.07;;;-1.40;99.90;;;-1.91;96.55;96836.16;172266;28;1758;-75
2021/12/01 00:01:13;;;;;;;3.13;2.13;;;-1.40;99.90;;;-1.96;96.40;96833.91;173362;28;1752;-76
2021/12/01 00:01:19;;;;;;;5.57;2.20;;;-1.30;99.90;;;-1.92;96.66;96829.25;172424;28;1422;-73
2021/12/01 00:01:25;;;;;;;5.90;2.20;;;-1.30;99.90;;;-1.96;96.31;96825.16;171996;28;1587;-75
2021/12/01 00:01:31;;;;;;;5.70;2.30;;;-1.40;99.90;;;-1.98;96.19;96827.94;171115;28;1455;-76
2021/12/01 00:01:37;;;;;;;5.97;2.45;;;-1.30;99.90;;;-1.91;96.29;96838.81;171552;28;1316;-75
2021/12/01 00:01:43;;;;;;;6.13;2.47;;;-1.30;99.90;;;-1.89;96.39;96839.53;171802;28;1046;-76
2021/12/01 00:01:49;;;;;;;4.88;2.85;;;-1.30;99.90;;;-1.86;96.35;96844.53;171457;28;2231;-74
2021/12/01 00:01:55;;;;;;;5.23;2.90;;;-1.30;99.90;;;-1.90;96.32;96835.22;171472;28;1332;-76
2021/12/01 00:02:01;;;;;;;6.80;2.92;;;-1.30;99.90;;;-1.92;96.50;96831.88;170948;28;1314;-75
2021/12/01 00:02:07;;;;;;;7.28;2.92;;;-1.40;99.90;;;-1.91;96.10;96836.16;171599;28;1297;-76
2021/12/01 00:02:13;;;;;;;7.60;2.83;;;-1.30;99.90;;;-1.96;96.27;96831.28;172431;28;1204;-76
2021/12/01 00:02:18;;;;;;;6.85;2.35;;;-1.30;99.90;;;-1.93;96.43;96838.13;171395;28;1209;-76
2021/12/01 00:02:26;;;;;;;6.13;2.15;;;-1.30;99.90;;;-1.88;96.25;96844.69;171913;28;981;-76
2021/12/01 00:02:32;;;;;;;4.67;1.93;;;-1.30;99.90;;;-1.91;96.45;96838.81;171497;28;1232;-76
2021/12/01 00:02:38;;;;;;;4.20;2.00;;;-1.30;99.90;;;-1.89;96.45;96843.00;170427;29;936;-76
2021/12/01 00:02:44;;;;;;;4.03;2.08;;;-1.30;99.90;;;-1.86;96.30;96853.28;172005;28;1432;-76
2021/12/01 00:02:53;;;;;;;3.70;2.00;;;-1.30;99.90;;;-1.91;96.24;96838.81;171214;28;1411;-74
2021/12/01 00:03:00;;;;;;;3.40;1.88;;;-1.30;99.90;;;-1.90;96.46;96843.13;171384;28;1387;-76
2021/12/01 00:03:06;;;;;;;2.88;1.80;;;-1.30;99.90;;;-1.95;96.29;96832.13;171659;28;1672;-76
2021/12/01 00:03:12;;;;;;;2.72;1.77;;;-1.30;99.90;;;-1.82;96.43;96848.63;171948;28;1505;-76
2021/12/01 00:03:18;;;;;;;2.87;2.00;;;-1.30;99.90;;;-1.88;96.37;96847.31;173251;28;867;-76
2021/12/01 00:03:24;;;;;;;4.63;2.33;;;-1.30;99.90;;;-1.90;96.63;96841.31;173003;28;2063;-77
2021/12/01 00:03:30;;;;;;;4.88;2.42;;;-1.30;99.90;;;-1.85;96.50;96844.41;173239;28;883;-76
2021/12/01 00:03:36;;;;;;;5.45;2.60;;;-1.30;99.90;;;-1.94;96.57;96839.06;171561;28;1223;-75
2021/12/01 00:03:42;;;;;;;6.55;2.70;;;-1.30;99.90;;;-1.82;96.45;96857.38;171194;28;837;-76
2021/12/01 00:03:49;;;;;;;7.63;2.70;;;-1.30;99.90;;;-2.05;96.68;96824.13;171801;28;1523;-75
2021/12/01 00:03:55;;;;;;;6.04;2.68;;;-1.30;99.90;;;-1.83;96.53;96860.97;172313;28;1559;-76
2021/12/01 00:04:01;;;;;;;5.95;2.65;;;-1.30;99.90;;;-1.87;96.54;96849.00;172292;28;1643;-76
2021/12/01 00:04:08;;;;;;;5.10;2.43;;;-1.30;99.90;;;-1.89;96.33;96842.16;172353;28;1489;-74
2021/12/01 00:04:14;;;;;;;3.62;2.22;;;-1.30;99.90;;;-1.87;96.27;96846.38;171754;28;882;-75
2021/12/01 00:04:20;;;;;;;2.17;1.83;;;-1.30;99.90;;;-1.91;96.74;96842.28;170355;28;1709;-76
2021/12/01 00:04:25;;;;;;;2.30;1.58;;;-1.30;99.90;;;-1.84;96.44;96848.75;171682;28;1701;-76
2021/12/01 00:04:32;;;;;;;2.47;1.60;;;-1.30;99.90;;;-1.91;96.43;96842.28;173349;28;1300;-76
2021/12/01 00:04:38;;;;;;;2.47;1.57;;;-1.30;99.90;;;-1.93;96.64;96846.88;173210;28;927;-76
2021/12/01 00:04:44;;;;;;;2.50;1.58;;;-1.30;99.90;;;-1.89;96.32;96847.44;172339;28;1387;-75
2021/12/01 00:04:50;;;;;;;2.63;1.70;;;-1.30;99.90;;;-1.89;96.50;96845.66;170712;28;1608;-75
2021/12/01 00:04:56;;;;;;;2.23;1.67;;;-1.30;99.90;;;-2.00;96.36;96832.50;171183;28;1028;-75
2021/12/01 00:05:02;;;;;;;2.13;1.60;;;-1.30;99.90;;;-1.87;96.43;96856.06;171141;28;1254;-76
2021/12/01 00:05:10;;;;;;;2.23;1.67;;;-1.30;99.90;;;-1.96;96.29;96836.53;171514;28;1380;-75
2021/12/01 00:05:16;;;;;;;2.50;1.80;;;-1.30;99.90;;;-1.97;96.37;96840.16;171810;28;1285;-76
2021/12/01 00:05:26;;;;;;;2.50;1.70;;;-1.30;99.90;;;-1.94;96.49;96839.91;170982;28;1325;-75
2021/12/01 00:05:33;;;;;;;2.70;1.80;;;-1.30;99.90;;;-1.88;96.55;96855.25;171759;28;1241;-76
2021/12/01 00:05:40;;;;;;;3.10;2.20;;;-1.40;99.90;;;-1.95;96.21;96843.50;173654;28;1513;-76
2021/12/01 00:05:46;;;;;;;3.23;2.13;;;-1.30;99.90;;;-1.84;96.79;96855.81;173154;28;969;-74
2021/12/01 00:05:52;;;;;;;3.33;2.17;;;-1.30;99.90;;;-1.93;96.66;96840.75;172958;28;1817;-74
2021/12/01 00:05:58;;;;;;;3.85;2.38;;;-1.40;99.90;;;-1.92;96.50;96845.06;172888;28;1255;-75
2021/12/01 00:06:05;;;;;;;4.43;2.38;;;-1.30;99.90;;;-1.91;96.68;96847.56;171677;28;1210;-76
2021/12/01 00:06:11;;;;;;;5.00;2.18;;;-1.30;99.90;;;-1.90;96.62;96845.75;171853;28;880;-76
2021/12/01 00:06:17;;;;;;;6.47;2.53;;;-1.30;99.90;;;-1.87;96.46;96851.63;172400;28;1290;-76
2021/12/01 00:06:23;;;;;;;11.77;3.00;;;-1.30;99.90;;;-1.93;96.50;96857.41;171826;28;946;-76
2021/12/01 00:06:30;;;;;;;11.57;2.78;;;-1.30;99.90;;;-1.89;96.44;96858.81;172151;28;1386;-76
2021/12/01 00:06:36;;;;;;;11.75;2.85;;;-1.30;99.90;;;-1.95;96.43;96845.31;171727;28;1442;-76
2021/12/01 00:06:42;;;;;;;11.96;3.02;;;-1.40;99.90;;;-1.95;96.72;96842.66;170323;29;1203;-76
2021/12/01 00:06:48;;;;;;;10.67;2.83;;;-1.40;99.90;;;-1.90;96.36;96856.31;170853;28;1747;-75
2021/12/01 00:06:54;;;;;;;5.68;2.80;;;-1.40;99.90;;;-2.02;96.58;96830.97;171795;28;1200;-76
2021/12/01 00:06:59;;;;;;;6.03;2.90;;;-1.30;99.90;;;-1.94;96.28;96846.97;172685;28;1871;-76
2021/12/01 00:07:07;;;;;;;6.28;3.08;;;-1.40;99.90;;;-1.87;96.34;96856.91;172315;28;1660;-75
2021/12/01 00:07:13;;;;;;;5.60;2.90;;;-1.30;99.90;;;-1.91;96.14;96852.00;170486;28;1193;-76
2021/12/01 00:07:19;;;;;;;6.07;2.85;;;-1.30;99.90;;;-1.94;96.37;96850.47;170968;28;999;-75
2021/12/01 00:07:25;;;;;;;5.43;2.53;;;-1.40;99.90;;;-1.95;96.21;96847.94;171084;28;1295;-76
2021/12/01 00:07:35;;;;;;;4.15;2.22;;;-1.40;99.90;;;-1.91;96.13;96854.63;171198;28;864;-76
2021/12/01 00:07:40;;;;;;;3.84;1.81;;;-1.40;99.90;;;-1.92;96.50;96856.47;172372;28;1444;-76
2021/12/01 00:07:48;;;;;;;3.60;1.80;;;-1.30;99.90;;;-2.06;96.47;96833.00;172260;28;962;-76
2021/12/01 00:07:55;;;;;;;3.87;2.03;;;-1.40;99.90;;;-1.88;96.18;96862.31;172387;28;1541;-75
2021/12/01 00:08:02;;;;;;;4.83;2.43;;;-1.40;99.90;;;-1.95;96.29;96847.94;172170;28;1196;-76
2021/12/01 00:08:09;;;;;;;5.03;2.60;;;-1.40;99.90;;;-2.05;96.34;96836.47;172426;28;1393;-76
2021/12/01 00:08:15;;;;;;;5.00;2.70;;;-1.40;99.90;;;-2.00;96.31;96840.41;172196;28;1431;-75
2021/12/01 00:08:21;;;;;;;4.43;2.23;;;-1.40;99.90;;;-2.23;96.25;96800.09;170509;29;964;-76
2021/12/01 00:08:27;;;;;;;4.35;2.30;;;-1.40;99.90;;;-2.00;96.21;96843.03;171582;28;1451;-73
2021/12/01 00:08:34;;;;;;;3.38;2.05;;;-1.40;99.90;;;-1.88;96.42;96862.31;171771;28;1244;-76
2021/12/01 00:08:40;;;;;;;3.13;2.10;;;-1.40;99.90;;;-1.91;96.13;96857.25;171750;28;1036;-75
2021/12/01 00:08:46;;;;;;;4.57;2.40;;;-1.40;99.90;;;-1.92;96.56;96859.09;171802;28;2153;-76
2021/12/01 00:08:51;;;;;;;4.70;2.60;;;-1.40;99.90;;;-2.06;96.43;96835.63;172089;28;1508;-76
2021/12/01 00:08:58;;;;;;;4.65;2.50;;;-1.40;99.90;;;-2.00;96.19;96848.31;172326;28;1165;-76
2021/12/01 00:09:04;;;;;;;5.06;2.72;;;-1.40;99.90;;;-2.01;96.09;96844.00;171041;28;1285;-76
2021/12/01 00:09:10;;;;;;;5.25;2.80;;;-1.40;99.90;;;-1.96;96.33;96855.00;171665;28;1389;-76
2021/12/01 00:09:16;;;;;;;4.10;2.65;;;-1.40;99.90;;;-1.95;96.31;96850.56;172557;28;1034;-75
2021/12/01 00:09:22;;;;;;;3.97;2.70;;;-1.40;99.90;;;-2.00;96.30;96848.31;172650;28;1482;-75
2021/12/01 00:09:28;;;;;;;4.78;2.90;;;-1.40;99.90;;;-1.94;96.51;96852.25;173080;28;1333;-76
2021/12/01 00:09:34;;;;;;;4.37;2.70;;;-1.40;99.90;;;-1.93;96.64;96853.94;173179;28;1038;-76
2021/12/01 00:09:40;;;;;;;4.20;2.63;;;-1.40;99.90;;;-1.90;96.27;96858.94;171062;28;1250;-76
2021/12/01 00:09:46;;;;;;;4.38;2.72;;;-1.40;99.90;;;-1.92;96.54;96863.53;172106;28;1348;-75
2021/12/01 00:09:52;;;;;;;4.30;2.55;;;-1.40;99.90;;;-1.90;96.54;96861.59;172162;28;1817;-75
2021/12/01 00:09:58;;;;;;;4.07;2.37;;;-1.40;99.90;;;-1.90;96.47;96862.44;172401;28;1409;-75
2021/12/01 00:10:07;;;;;;;3.95;2.35;;;-1.40;99.90;;;-1.88;96.60;96873.69;172210;28;1390;-74
2021/12/01 00:10:13;;;;;;;4.03;2.40;;;-1.40;99.90;;;-1.92;96.36;96859.09;172329;28;1271;-76
2021/12/01 00:10:23;;;;;;;5.67;2.40;;;-1.40;99.90;;;-1.88;96.47;96864.94;172316;28;1781;-76
2021/12/01 00:10:34;;;;;;;6.81;2.60;;;-1.40;99.90;;;-1.88;96.25;96865.78;173528;28;2424;-76
2021/12/01 00:10:42;;;;;;;7.50;2.59;;;-1.40;99.90;;;-1.96;96.39;96843.63;172997;28;1625;-75
2021/12/01 00:10:49;;;;;;;7.00;2.65;;;-1.40;99.90;;;-1.93;96.18;96853.94;172391;28;1547;-76
2021/12/01 00:10:55;;;;;;;5.37;2.73;;;-1.40;99.90;;;-1.87;96.21;96866.63;171583;28;999;-76
2021/12/01 00:11:01;;;;;;;4.43;2.33;;;-1.40;99.90;;;-1.87;96.09;96861.34;171716;28;1530;-76
2021/12/01 00:11:07;;;;;;;4.70;2.66;;;-1.40;99.90;;;-1.96;96.10;96849.72;171838;28;1516;-75
2021/12/01 00:11:13;;;;;;;4.35;2.70;;;-1.40;99.90;;;-1.97;96.34;96845.41;171210;28;927;-76
2021/12/01 00:11:19;;;;;;;6.20;2.63;;;-1.40;99.90;;;-1.89;96.16;96866.75;172488;28;1038;-75
2021/12/01 00:11:26;;;;;;;6.00;2.53;;;-1.40;99.90;;;-1.94;95.91;96853.09;172385;28;1297;-76
2021/12/01 00:11:32;;;;;;;6.30;2.74;;;-1.40;99.90;;;-1.97;96.23;96848.06;172355;28;1565;-75
2021/12/01 00:11:38;;;;;;;8.37;2.90;;;-1.40;99.90;;;-1.92;96.17;96853.81;171737;28;954;-76
2021/12/01 00:11:44;;;;;;;8.27;2.88;;;-1.40;99.90;;;-1.93;96.21;96857.41;173145;28;969;-76
2021/12/01 00:11:50;;;;;;;5.53;2.67;;;-1.40;99.90;;;-1.95;95.63;96859.31;173075;28;1362;-76
2021/12/01 00:11:56;;;;;;;6.05;2.80;;;-1.40;99.90;;;-1.95;96.07;96863.75;170853;28;1261;-74
2021/12/01 00:12:02;;;;;;;6.07;2.87;;;-1.40;99.90;;;-1.98;95.68;96848.19;172085;28;1406;-75
2021/12/01 00:12:09;;;;;;;4.06;2.56;;;-1.40;99.90;;;-1.91;96.02;96857.25;172389;28;1845;-75
2021/12/01 00:12:15;;;;;;;3.85;2.47;;;-1.40;99.90;;;-1.93;96.10;96853.94;172882;28;1442;-75
2021/12/01 00:12:21;;;;;;;4.05;2.42;;;-1.40;99.90;;;-1.92;96.21;96859.09;171831;28;927;-75
2021/12/01 00:12:27;;;;;;;3.90;2.37;;;-1.40;99.90;;;-1.93;96.23;96865.31;171614;28;1440;-76
2021/12/01 00:12:33;;;;;;;3.58;2.13;;;-1.40;99.90;;;-2.01;96.37;96853.72;171737;28;1669;-76
2021/12/01 00:12:39;;;;;;;3.83;2.13;;;-1.40;99.90;;;-2.09;96.27;96830.63;171594;28;2181;-76
2021/12/01 00:12:46;;;;;;;5.72;2.33;;;-1.40;99.90;;;-1.99;96.27;96843.88;171836;28;1711;-75
2021/12/01 00:12:52;;;;;;;5.40;2.47;;;-1.40;99.90;;;-1.94;96.15;96860.16;172164;28;1135;-75
2021/12/01 00:12:58;;;;;;;6.50;2.50;;;-1.40;99.90;;;-2.06;96.51;96838.25;172949;28;1427;-75
2021/12/01 00:13:09;;;;;;;6.38;2.40;;;-1.40;99.90;;;-2.01;96.20;96843.16;172491;28;1394;-75
2021/12/01 00:13:20;;;;;;;4.74;2.31;;;-1.40;99.90;;;-1.94;96.72;96855.72;171085;28;1741;-75
2021/12/01 00:13:28;;;;;;;3.61;2.13;;;-1.40;99.90;;;-1.91;96.45;96857.25;172802;28;1615;-76
2021/12/01 00:13:35;;;;;;;3.40;2.20;;;-1.40;99.90;;;-1.89;96.42;96861.47;173776;28;1185;-75
2021/12/01 00:13:41;;;;;;;3.65;2.40;;;-1.40;99.90;;;-1.96;96.91;96852.38;173868;28;970;-73
2021/12/01 00:13:47;;;;;;;4.07;2.42;;;-1.40;99.90;;;-1.96;96.28;96854.16;172456;28;986;-75
2021/12/01 00:13:53;;;;;;;6.30;2.50;;;-1.40;99.90;;;-1.95;96.54;96863.75;171371;28;1352;-76
2021/12/01 00:13:59;;;;;;;6.18;2.45;;;-1.40;99.90;;;-1.93;96.71;96856.56;171687;28;1049;-75
2021/12/01 00:14:05;;;;;;;5.87;2.30;;;-1.40;99.90;;;-2.01;96.81;96849.28;172307;28;1464;-75
2021/12/01 00:14:11;;;;;;;5.78;2.30;;;-1.40;99.90;;;-1.94;96.51;96866.28;171753;28;1259;-75
2021/12/01 00:14:17;;;;;;;5.40;2.20;;;-1.40;99.90;;;-1.93;96.63;96857.41;172157;28;1192;-76
2021/12/01 00:14:23;;;;;;;3.10;2.05;;;-1.40;99.90;;;-2.01;96.58;96856.34;171769;28;1286;-75
2021/12/01 00:14:29;;;;;;;3.28;2.03;;;-1.40;99.90;;;-2.02;96.49;96852.88;172177;28;1526;-76
2021/12/01 00:14:35;;;;;;;3.10;2.00;;;-1.40;99.90;;;-1.98;96.64;96859.59;173215;28;839;-75
2021/12/01 00:14:41;;;;;;;3.47;2.10;;;-1.40;99.90;;;-1.99;96.74;96863.19;172275;28;1283;-75
2021/12/01 00:14:47;;;;;;;3.33;2.08;;;-1.40;99.90;;;-2.01;96.38;96853.72;172451;28;1331;-75
2021/12/01 00:14:53;;;;;;;4.72;2.22;;;-1.40;99.90;;;-2.01;96.37;96853.72;170296;29;1294;-76
2021/12/01 00:14:59;;;;;;;4.97;2.33;;;-1.40;99.90;;;-1.94;96.29;96871.56;171696;28;1699;-75
2021/12/01 00:15:07;;;;;;;5.44;2.48;;;-1.40;99.90;;;-1.97;96.45;96866.50;170996;28;1483;-75
2021/12/01 00:15:13;;;;;;;4.98;2.58;;;-1.40;99.90;;;-1.95;96.51;96869.03;171103;28;1023;-75
2021/12/01 00:15:20;;;;;;;5.45;2.95;;;-1.40;99.90;;;-1.96;96.18;96868.19;169730;29;1454;-75
2021/12/01 00:15:26;;;;;;;4.42;2.78;;;-1.40;99.90;;;-2.01;96.39;96862.47;171134;28;960;-75
2021/12/01 00:15:34;;;;;;;4.53;2.87;;;-1.40;99.90;;;-2.00;96.25;96863.31;171780;28;1673;-76
2021/12/01 00:15:43;;;;;;;4.12;2.50;;;-1.40;99.90;;;-2.05;96.48;96855.78;171401;28;885;-75
2021/12/01 00:15:52;;;;;;;3.96;2.23;;;-1.40;99.90;;;-1.99;96.30;96862.34;170932;28;1508;-75
2021/12/01 00:15:58;;;;;;;3.96;2.09;;;-1.40;99.90;;;-1.99;95.99;96857.91;171737;28;1475;-76
2021/12/01 00:16:07;;;;;;;4.10;2.10;;;-1.40;99.90;;;-2.02;96.52;96865.25;172359;28;1419;-76
2021/12/01 00:16:13;;;;;;;4.41;2.30;;;-1.40;99.90;;;-2.04;96.60;96856.59;171423;28;1256;-75
2021/12/01 00:16:19;;;;;;;4.85;2.25;;;-1.40;99.90;;;-2.11;96.56;96842.22;172469;28;1417;-75
2021/12/01 00:16:25;;;;;;;5.03;2.40;;;-1.40;99.90;;;-1.99;96.59;96868.47;171761;28;1431;-75
2021/12/01 00:16:31;;;;;;;4.28;2.25;;;-1.40;99.90;;;-1.97;96.51;96882.34;172323;28;1664;-75
2021/12/01 00:16:37;;;;;;;4.10;2.15;;;-1.40;99.90;;;-2.06;96.53;96848.81;172565;28;971;-76
2021/12/01 00:16:43;;;;;;;3.90;2.03;;;-1.40;99.90;;;-1.99;96.76;96863.19;172356;28;1308;-76
2021/12/01 00:16:49;;;;;;;3.15;2.05;;;-1.40;99.90;;;-2.06;96.51;96867.28;171991;28;1176;-76
2021/12/01 00:16:55;;;;;;;3.40;1.93;;;-1.40;99.90;;;-2.15;96.43;96846.94;174207;28;1362;-76
2021/12/01 00:17:02;;;;;;;3.70;2.03;;;-1.40;99.90;;;-2.09;96.46;96853.50;172464;28;1293;-76
2021/12/01 00:17:11;;;;;;;4.07;2.23;;;-1.40;99.90;;;-2.15;96.54;96844.28;173260;28;1002;-75
2021/12/01 00:17:17;;;;;;;4.20;2.37;;;-1.50;99.90;;;-2.10;96.66;96859.75;171903;28;1366;-75
2021/12/01 00:17:23;;;;;;;4.03;2.35;;;-1.50;99.90;;;-2.16;96.75;96851.38;173755;28;1314;-76
2021/12/01 00:17:29;;;;;;;2.93;2.30;;;-1.50;99.90;;;-2.06;96.89;96866.44;171960;28;1600;-76
2021/12/01 00:17:35;;;;;;;4.88;2.28;;;-1.50;99.90;;;-2.26;96.60;96841.69;172456;28;1575;-75
2021/12/01 00:17:41;;;;;;;5.72;2.22;;;-1.50;99.90;;;-2.16;96.87;96855.78;172053;28;749;-76
2021/12/01 00:17:49;;;;;;;5.86;2.16;;;-1.50;99.90;;;-2.21;96.69;96850.06;171185;28;1346;-76
2021/12/01 00:17:55;;;;;;;7.00;2.47;;;-1.50;99.90;;;-2.07;96.69;96872.69;172135;28;1397;-75
2021/12/01 00:18:01;;;;;;;7.13;2.47;;;-1.50;99.90;;;-2.11;96.72;96871.25;172558;28;1207;-75
2021/12/01 00:18:07;;;;;;;4.38;2.35;;;-1.50;99.90;;;-2.15;96.88;96862.75;171190;28;1449;-75
2021/12/01 00:18:14;;;;;;;4.43;2.35;;;-1.50;99.90;;;-2.24;96.96;96856.44;172108;28;1275;-75
2021/12/01 00:18:20;;;;;;;5.83;2.50;;;-1.50;99.90;;;-2.33;96.95;96837.91;172109;28;1549;-76
2021/12/01 00:18:27;;;;;;;4.88;2.28;;;-1.50;99.90;;;-2.26;96.72;96860.13;172549;28;1355;-75
2021/12/01 00:18:33;;;;;;;4.90;2.40;;;-1.50;99.90;;;-2.15;96.78;96875.94;171868;28;945;-76
2021/12/01 00:18:40;;;;;;;4.16;2.24;;;-1.50;99.90;;;-2.23;96.96;96865.19;173519;28;1436;-76
2021/12/01 00:18:46;;;;;;;3.85;2.17;;;-1.60;99.90;;;-2.13;96.91;96884.56;173376;28;1559;-76
2021/12/01 00:18:52;;;;;;;3.34;2.00;;;-1.60;99.90;;;-2.19;97.06;96872.72;172464;28;1549;-76
2021/12/01 00:18:58;;;;;;;4.10;2.10;;;-1.60;99.90;;;-2.30;96.64;96862.19;171832;28;1038;-76
2021/12/01 00:19:04;;;;;;;5.27;2.37;;;-1.60;99.90;;;-2.22;96.81;96872.09;170557;29;1068;-75
2021/12/01 00:19:10;;;;;;;6.00;2.50;;;-1.60;99.90;;;-2.21;96.93;96879.91;171394;28;1200;-76
2021/12/01 00:19:16;;;;;;;5.90;2.47;;;-1.60;99.90;;;-2.29;97.11;96860.41;173117;28;1414;-76
2021/12/01 00:19:22;;;;;;;5.63;2.40;;;-1.60;99.90;;;-2.21;97.08;96882.53;171685;28;1303;-76
2021/12/01 00:19:29;;;;;;;5.35;2.30;;;-1.60;99.90;;;-2.20;96.93;96883.38;171975;28;947;-76
2021/12/01 00:19:35;;;;;;;4.03;2.10;;;-1.60;99.90;;;-2.21;97.03;96885.16;173078;28;1146;-75
2021/12/01 00:19:41;;;;;;;3.80;1.95;;;-1.60;99.90;;;-2.25;96.85;96877.63;172451;28;1244;-76
2021/12/01 00:19:47;;;;;;;3.88;1.95;;;-1.60;99.90;;;-2.20;97.09;96883.38;172823;28;1124;-76
2021/12/01 00:19:53;;;;;;;3.20;2.22;;;-1.60;99.90;;;-2.20;97.10;96878.94;171178;28;1290;-75
2021/12/01 00:20:00;;;;;;;3.40;2.33;;;-1.60;99.90;;;-2.20;97.17;96886.00;171331;28;983;-74
2021/12/01 00:20:14;;;;;;;3.55;2.45;;;-1.60;99.90;;;-2.26;96.90;96875.97;172326;28;1545;-76
2021/12/01 00:20:21;;;;;;;4.45;2.49;;;-1.60;99.90;;;-2.24;97.15;96874.88;171998;28;1498;-75
2021/12/01 00:20:27;;;;;;;4.17;2.10;;;-1.60;99.90;;;-2.23;97.55;96866.00;172487;28;1480;-74
2021/12/01 00:20:34;;;;;;;4.32;2.05;;;-1.60;99.90;;;-2.30;97.20;96853.44;172914;28;1718;-76
2021/12/01 00:20:41;;;;;;;3.64;1.98;;;-1.60;99.90;;;-2.26;97.60;96858.34;173511;28;1562;-76
2021/12/01 00:20:47;;;;;;;3.47;2.00;;;-1.60;99.90;;;-2.28;97.49;96856.81;172832;28;1279;-76
2021/12/01 00:20:54;;;;;;;3.25;1.90;;;-1.70;99.90;;;-2.17;97.47;96875.22;171988;28;1300;-76
2021/12/01 00:21:00;;;;;;;3.20;1.90;;;-1.60;99.90;;;-2.31;97.63;96839.44;172126;28;932;-75
2021/12/01 00:21:06;;;;;;;3.22;1.77;;;-1.60;99.90;;;-2.20;97.34;96865.75;172553;28;994;-74
2021/12/01 00:21:12;;;;;;;4.28;2.10;;;-1.60;99.90;;;-2.15;97.59;96866.22;172162;28;1344;-75
2021/12/01 00:21:18;;;;;;;4.30;2.10;;;-1.60;99.90;;;-2.28;97.46;96848.91;171710;28;1471;-75
2021/12/01 00:21:25;;;;;;;4.65;2.17;;;-1.60;99.90;;;-2.23;97.42;96852.00;170903;28;1719;-75
2021/12/01 00:21:31;;;;;;;4.40;2.20;;;-1.60;99.90;;;-2.20;97.77;96854.38;171461;28;1297;-75
2021/12/01 00:21:37;;;;;;;4.22;2.15;;;-1.60;99.90;;;-2.21;97.64;96848.25;171950;28;1359;-75
2021/12/01 00:21:43;;;;;;;2.80;1.75;;;-1.60;99.90;;;-2.22;97.56;96851.00;172916;28;848;-75
2021/12/01 00:21:49;;;;;;;2.27;1.60;;;-1.60;99.90;;;-2.18;97.85;96855.91;171834;28;1256;-75
2021/12/01 00:21:56;;;;;;;2.00;1.52;;;-1.60;99.90;;;-2.21;97.80;96844.78;171318;28;1212;-74
2021/12/01 00:22:03;;;;;;;2.72;1.80;;;-1.60;99.90;;;-2.23;97.76;96841.47;172622;28;1409;-74
2021/12/01 00:22:09;;;;;;;3.48;2.00;;;-1.60;99.90;;;-2.17;97.78;96848.84;173722;28;1339;-76
2021/12/01 00:22:15;;;;;;;3.42;2.10;;;-1.60;99.90;;;-2.23;97.82;96844.09;173546;28;1315;-75
2021/12/01 00:22:21;;;;;;;3.45;2.13;;;-1.60;99.90;;;-2.22;97.90;96843.09;172415;28;1906;-74
2021/12/01 00:22:27;;;;;;;3.83;2.35;;;-1.60;99.90;;;-2.15;98.00;96855.69;172321;28;1528;-75
2021/12/01 00:22:33;;;;;;;3.05;2.20;;;-1.60;99.90;;;-2.16;98.03;96853.16;173259;28;1061;-75
2021/12/01 00:22:40;;;;;;;2.97;2.38;;;-1.60;99.90;;;-2.18;98.04;96840.09;173114;28;1471;-74
2021/12/01 00:22:48;;;;;;;3.47;2.70;;;-1.60;99.90;;;-2.25;97.83;96830.19;173982;28;911;-75
2021/12/01 00:22:55;;;;;;;3.33;2.57;;;-1.60;99.90;;;-2.20;98.48;96846.47;171558;28;1098;-74
2021/12/01 00:23:02;;;;;;;4.03;2.40;;;-1.60;99.90;;;-2.19;98.31;96842.88;171812;28;1343;-74
2021/12/01 00:23:08;;;;;;;4.66;2.26;;;-1.60;99.90;;;-2.11;97.99;96855.41;172103;28;2018;-74
2021/12/01 00:23:15;;;;;;;5.07;1.80;;;-1.60;99.90;;;-2.16;97.88;96845.25;172039;28;1194;-75
2021/12/01 00:23:21;;;;;;;5.10;1.90;;;-1.60;99.90;;;-2.15;97.93;96849.56;173061;28;1437;-74
2021/12/01 00:23:27;;;;;;;5.07;1.98;;;-1.60;99.90;;;-2.19;98.10;96840.25;171977;28;1496;-74
2021/12/01 00:23:34;;;;;;;5.40;2.10;;;-1.60;99.90;;;-2.09;98.45;96853.50;171570;28;1610;-74
2021/12/01 00:23:40;;;;;;;3.83;2.10;;;-1.60;99.90;;;-2.09;97.92;96862.25;172072;28;1438;-74
2021/12/01 00:23:45;;;;;;;4.37;2.30;;;-1.60;99.90;;;-2.14;98.38;96851.25;171405;28;1392;-74
2021/12/01 00:23:51;;;;;;;5.93;2.53;;;-1.60;99.90;;;-2.09;98.33;96857.00;171958;28;758;-74
2021/12/01 00:23:58;;;;;;;6.28;2.63;;;-1.60;99.90;;;-2.08;98.10;96861.31;173007;28;1673;-74
2021/12/01 00:24:04;;;;;;;6.03;2.63;;;-1.60;99.90;;;-2.08;98.14;96853.41;173160;28;1260;-75
2021/12/01 00:24:10;;;;;;;6.07;2.70;;;-1.60;99.90;;;-2.09;98.25;96857.00;173518;28;1626;-74
2021/12/01 00:24:16;;;;;;;5.78;2.60;;;-1.60;99.90;;;-2.10;98.21;96852.66;172193;28;1204;-75
2021/12/01 00:24:22;;;;;;;4.13;2.53;;;-1.60;99.90;;;-2.15;98.10;96846.94;172629;28;1065;-75
2021/12/01 00:24:28;;;;;;;3.60;2.57;;;-1.60;99.90;;;-2.18;98.26;96847.19;174001;28;1445;-75
2021/12/01 00:24:34;;;;;;;3.95;2.75;;;-1.60;99.90;;;-2.07;98.04;96857.69;173888;28;1211;-75
2021/12/01 00:24:40;;;;;;;5.10;2.75;;;-1.60;99.90;;;-2.21;98.35;96836.88;172217;28;1193;-74
2021/12/01 00:24:45;;;;;;;5.47;2.85;;;-1.60;99.90;;;-2.15;97.99;96852.22;171868;28;1339;-74
2021/12/01 00:24:52;;;;;;;5.40;2.80;;;-1.60;99.90;;;-2.13;98.23;96858.22;171719;28;1679;-75
2021/12/01 00:24:58;;;;;;;7.27;2.83;;;-1.60;99.90;;;-2.13;98.41;96852.94;171996;28;1447;-75
2021/12/01 00:25:08;;;;;;;7.68;2.85;;;-1.60;99.90;;;-2.18;97.63;96847.19;172456;28;1092;-74
2021/12/01 00:25:22;;;;;;;6.54;2.67;;;-1.60;99.90;;;-2.07;98.04;96867.41;172355;28;2682;-75
2021/12/01 00:25:29;;;;;;;5.66;2.54;;;-1.60;99.90;;;-2.11;97.90;96864.16;172676;28;1434;-75
2021/12/01 00:25:39;;;;;;;3.68;2.37;;;-1.60;99.90;;;-2.18;97.88;96844.56;172559;28;1527;-74
2021/12/01 00:25:45;;;;;;;4.03;2.33;;;-1.60;99.90;;;-2.14;97.58;96853.88;172256;28;1080;-75
2021/12/01 00:25:52;;;;;;;4.10;2.40;;;-1.60;99.90;;;-2.16;98.00;96853.16;171321;28;1293;-75
2021/12/01 00:25:58;;;;;;;5.40;2.72;;;-1.60;99.90;;;-2.19;97.89;96842.88;171285;28;1322;-76
2021/12/01 00:26:05;;;;;;;5.98;2.80;;;-1.60;99.90;;;-2.09;97.62;96861.41;172483;28;1335;-76
2021/12/01 00:26:11;;;;;;;6.57;3.27;;;-1.60;99.90;;;-2.13;97.61;96855.56;172628;28;2034;-76
2021/12/01 00:26:17;;;;;;;6.95;3.15;;;-1.60;99.90;;;-2.10;97.58;96860.56;173957;28;1307;-75
2021/12/01 00:26:23;;;;;;;7.43;3.20;;;-1.60;99.90;;;-2.12;97.54;96851.94;173584;28;2242;-76
2021/12/01 00:26:29;;;;;;;6.07;2.90;;;-1.60;99.90;;;-2.09;97.65;96859.63;172833;28;1470;-75
2021/12/01 00:26:35;;;;;;;5.30;2.80;;;-1.60;99.90;;;-2.15;97.80;96850.41;172515;28;1466;-76
2021/12/01 00:26:41;;;;;;;4.80;2.47;;;-1.60;99.90;;;-2.16;97.52;96845.25;172284;28;1317;-75
2021/12/01 00:26:47;;;;;;;7.90;2.70;;;-1.60;99.90;;;-2.19;97.65;96842.88;172568;28;1211;-76
2021/12/01 00:26:54;;;;;;;7.60;2.60;;;-1.60;99.90;;;-2.17;97.59;96848.84;172492;28;909;-75
2021/12/01 00:27:00;;;;;;;7.63;2.60;;;-1.60;99.90;;;-2.15;97.50;96852.22;171962;28;1648;-75
2021/12/01 00:27:06;;;;;;;6.88;2.55;;;-1.60;99.90;;;-2.22;97.72;96840.47;172498;28;1336;-75
2021/12/01 00:27:12;;;;;;;6.78;2.35;;;-1.60;99.90;;;-2.12;97.35;96851.94;172443;28;2914;-74
2021/12/01 00:27:18;;;;;;;2.90;2.00;;;-1.60;99.90;;;-2.13;97.51;96852.94;172425;28;1092;-76
2021/12/01 00:27:24;;;;;;;2.90;2.05;;;-1.60;99.90;;;-2.12;97.59;96851.94;172437;28;1415;-75
2021/12/01 00:27:30;;;;;;;2.53;1.90;;;-1.60;99.90;;;-2.14;97.53;96853.88;172429;28;1517;-76
2021/12/01 00:27:37;;;;;;;2.95;2.08;;;-1.60;99.90;;;-2.12;97.60;96859.03;173880;28;1455;-75
2021/12/01 00:27:44;;;;;;;3.32;2.30;;;-1.60;99.90;;;-2.11;97.63;96856.25;173094;28;1141;-76
2021/12/01 00:27:53;;;;;;;3.56;2.54;;;-1.60;99.90;;;-2.09;97.75;96859.63;172537;28;1107;-75
2021/12/01 00:27:59;;;;;;;3.51;2.43;;;-1.50;99.90;;;-2.09;97.82;96864.91;172864;28;1901;-75
2021/12/01 00:28:07;;;;;;;4.33;2.47;;;-1.60;99.90;;;-2.19;97.42;96846.34;171983;28;1224;-75
2021/12/01 00:28:13;;;;;;;4.43;2.40;;;-1.50;99.90;;;-2.12;97.65;96851.94;172349;28;1238;-75
2021/12/01 00:28:20;;;;;;;4.40;2.17;;;-1.60;99.90;;;-2.17;97.52;96851.47;171242;28;973;-75